< < Back
Terminal Aerodrome Forecast


Current Version              Previous Versions:   1  2  3  4  5  6  7  8  9  

Terminal Aerodrome Forecast

972
FTUS42 KGSP 110534
TAFAVL
TAF
KAVL 110534Z 1106/1206 33011KT P6SM FEW100
     FM111000 33007KT P6SM FEW100
     FM111700 34010G16KT P6SM SCT050
     FM120100 35006KT P6SM BKN100=

Latest METAR

995
SAUS70 KWBC 111700 RRI
MTRAVL
METAR KAVL 111654Z 33011KT 10SM CLR 02/M09 A3013 RMK AO2 SLP217
T00171089


USA.gov is the U.S. government's official web portal to all federal, state and local government web resources and services.